createdAt,value
2019-04-14T00:02:03.296Z,30.90
2019-04-14T00:04:36.129Z,34.83
2019-04-14T00:07:05.949Z,34.37
2019-04-14T00:09:35.763Z,34.33
2019-04-14T00:12:07.449Z,33.63
2019-04-14T00:14:36.272Z,34.75
2019-04-14T00:17:06.569Z,35.63
2019-04-14T00:19:35.617Z,34.90
2019-04-14T00:22:05.306Z,38.47
2019-04-14T00:24:35.405Z,38.10
2019-04-14T00:27:06.268Z,35.87
2019-04-14T00:29:35.525Z,36.70
2019-04-14T00:32:05.263Z,35.10
2019-04-14T00:34:50.863Z,35.67
2019-04-14T00:37:35.779Z,36.40
2019-04-14T00:40:10.518Z,34.20
2019-04-14T00:42:47.357Z,34.63
2019-04-14T00:45:38.106Z,33.80
2019-04-14T00:48:09.256Z,32.50
2019-04-14T00:50:32.618Z,33.13
2019-04-14T00:53:01.541Z,31.62
2019-04-14T00:55:31.273Z,32.30
2019-04-14T00:58:01.414Z,33.20
2019-04-14T01:00:30.609Z,32.63
2019-04-14T01:03:00.717Z,33.80
2019-04-14T01:05:32.610Z,31.77
2019-04-14T01:08:00.973Z,33.87
2019-04-14T01:10:30.070Z,35.20
2019-04-14T01:13:00.522Z,36.63
2019-04-14T01:15:31.068Z,36.58
2019-04-14T01:18:01.488Z,34.92
2019-04-14T01:20:31.836Z,35.58
2019-04-14T01:23:02.039Z,35.57
2019-04-14T01:25:31.041Z,35.92
2019-04-14T01:28:00.313Z,34.75
2019-04-14T01:30:30.525Z,34.70
2019-04-14T01:32:59.666Z,34.90
2019-04-14T01:35:29.286Z,34.58
2019-04-14T01:37:59.421Z,35.30
2019-04-14T01:40:29.272Z,35.60
2019-04-14T01:42:59.410Z,37.77
2019-04-14T01:45:29.538Z,37.17
2019-04-14T01:47:59.583Z,35.70
2019-04-14T01:51:00.550Z,35.10
2019-04-14T01:53:46.689Z,35.65
2019-04-14T01:56:27.291Z,36.25
2019-04-14T01:58:57.952Z,36.42
2019-04-14T02:01:30.282Z,36.07
2019-04-14T02:04:00.643Z,35.60
2019-04-14T02:06:29.631Z,36.77
2019-04-14T02:08:58.969Z,37.43
2019-04-14T02:11:29.204Z,36.90
2019-04-14T02:13:59.354Z,35.50
2019-04-14T02:16:35.825Z,35.63
2019-04-14T02:19:00.344Z,36.48
2019-04-14T02:21:30.314Z,35.87
2019-04-14T02:24:00.476Z,36.20
2019-04-14T02:26:29.316Z,34.33
2019-04-14T02:28:59.244Z,35.70
2019-04-14T02:31:56.847Z,34.50
2019-04-14T02:34:41.514Z,37.45
2019-04-14T02:36:56.864Z,36.40
2019-04-14T02:39:31.095Z,38.28
2019-04-14T02:42:12.379Z,37.83
2019-04-14T02:44:33.139Z,35.55
2019-04-14T02:47:14.909Z,37.80
2019-04-14T02:52:09.663Z,38.63
2019-04-14T02:54:45.680Z,40.17
2019-04-14T02:57:03.001Z,38.97
2019-04-14T02:59:30.402Z,42.25
2019-04-14T03:02:15.909Z,40.20
2019-04-14T03:04:33.837Z,40.75
2019-04-14T03:07:12.040Z,36.70
2019-04-14T03:12:09.439Z,38.17
2019-04-14T03:20:17.555Z,40.12
2019-04-14T03:22:44.282Z,39.63
2019-04-14T03:25:15.241Z,37.55
2019-04-14T03:28:06.969Z,39.50
2019-04-14T03:30:58.690Z,39.90
2019-04-14T03:40:54.804Z,37.33
2019-04-14T03:43:09.947Z,39.60
2019-04-14T03:48:34.521Z,37.95
2019-04-14T03:50:37.896Z,41.45
2019-04-14T03:55:55.465Z,37.85
2019-04-14T03:58:20.603Z,37.65
2019-04-14T04:00:51.346Z,38.90
2019-04-14T04:03:20.332Z,41.95
2019-04-14T04:05:49.975Z,39.08
2019-04-14T04:08:20.081Z,39.13
2019-04-14T04:10:49.682Z,40.38
2019-04-14T04:13:19.417Z,41.42
2019-04-14T04:15:49.745Z,37.25
2019-04-14T04:18:22.533Z,40.30
2019-04-14T04:21:22.888Z,36.70
2019-04-14T04:23:55.860Z,39.08
2019-04-14T04:26:47.245Z,40.95
2019-04-14T04:29:30.957Z,39.67
2019-04-14T04:32:16.504Z,41.18
2019-04-14T04:35:08.488Z,39.15
2019-04-14T04:37:56.583Z,39.55
2019-04-14T04:40:29.054Z,42.27
2019-04-14T04:42:59.109Z,39.35
2019-04-14T04:45:28.394Z,44.83
2019-04-14T04:47:57.698Z,40.88
2019-04-14T04:50:28.153Z,41.02
2019-04-14T04:52:58.215Z,39.63
2019-04-14T04:55:28.635Z,40.50
2019-04-14T04:57:59.039Z,42.48
2019-04-14T05:00:28.785Z,40.63
2019-04-14T05:02:57.829Z,40.43
2019-04-14T05:06:19.267Z,37.35
2019-04-14T05:08:52.246Z,41.15
2019-04-14T05:11:40.434Z,40.28
2019-04-14T05:14:13.519Z,39.67
2019-04-14T05:16:42.440Z,40.58
2019-04-14T05:19:20.443Z,42.08
2019-04-14T05:21:43.014Z,42.27
2019-04-14T05:24:12.053Z,42.95
2019-04-14T05:26:41.737Z,40.60
2019-04-14T05:29:10.936Z,42.58
2019-04-14T05:31:40.418Z,42.65
2019-04-14T05:34:10.766Z,42.62
2019-04-14T05:36:39.747Z,42.95
2019-04-14T05:39:08.977Z,42.50
2019-04-14T05:41:38.084Z,42.30
2019-04-14T05:44:07.924Z,42.67
2019-04-14T05:46:38.093Z,43.68
2019-04-14T05:49:08.515Z,40.60
2019-04-14T05:51:37.632Z,40.38
2019-04-14T05:54:07.719Z,41.70
2019-04-14T05:56:37.999Z,40.78
2019-04-14T05:59:08.796Z,44.30
2019-04-14T06:01:39.139Z,43.55
2019-04-14T06:04:09.320Z,40.90
2019-04-14T06:06:38.436Z,40.00
2019-04-14T06:09:08.128Z,40.50
2019-04-14T06:11:37.266Z,41.10
2019-04-14T06:14:06.255Z,41.13
2019-04-14T06:16:35.092Z,41.63
2019-04-14T06:19:04.094Z,42.50
2019-04-14T06:21:33.520Z,42.40
2019-04-14T06:24:02.352Z,43.73
2019-04-14T06:26:31.240Z,41.33
2019-04-14T06:29:00.044Z,41.40
2019-04-14T06:31:42.960Z,41.25
2019-04-14T06:34:19.348Z,43.60
2019-04-14T06:37:08.123Z,42.00
2019-04-14T06:39:40.384Z,43.92
2019-04-14T06:42:09.220Z,41.37
2019-04-14T06:44:38.117Z,39.40
2019-04-14T06:47:06.916Z,42.07
2019-04-14T06:49:35.816Z,40.93
2019-04-14T06:52:05.296Z,40.00
2019-04-14T06:54:34.101Z,43.40
2019-04-14T06:57:03.060Z,43.53
2019-04-14T06:59:31.912Z,43.47
2019-04-14T07:02:01.816Z,40.88
2019-04-14T07:04:30.912Z,38.53
2019-04-14T07:06:59.916Z,41.77
2019-04-14T07:09:28.700Z,41.20
2019-04-14T07:11:57.600Z,41.20
2019-04-14T07:14:26.792Z,40.90
2019-04-14T07:16:55.597Z,39.83
2019-04-14T07:19:24.480Z,40.40
2019-04-14T07:21:53.256Z,39.77
2019-04-14T07:24:22.069Z,38.65
2019-04-14T07:26:51.054Z,41.23
2019-04-14T07:29:20.164Z,40.43
2019-04-14T07:32:05.117Z,39.53
2019-04-14T07:34:56.283Z,40.47
2019-04-14T07:37:42.386Z,38.37
2019-04-14T07:40:23.404Z,39.00
2019-04-14T07:42:58.012Z,39.70
2019-04-14T07:45:32.327Z,39.77
2019-04-14T07:48:10.116Z,38.97
2019-04-14T07:51:07.073Z,40.43
2019-04-14T07:53:49.612Z,35.97
2019-04-14T07:56:50.018Z,38.33
2019-04-14T07:59:27.916Z,38.30
2019-04-14T08:02:15.461Z,38.53
2019-04-14T08:04:54.125Z,35.07
2019-04-14T08:07:23.811Z,36.23
2019-04-14T08:09:52.764Z,37.60
2019-04-14T08:12:21.760Z,36.10
2019-04-14T08:14:50.644Z,36.97
2019-04-14T08:17:19.612Z,37.40
2019-04-14T08:19:48.424Z,35.13
2019-04-14T08:22:17.356Z,32.80
2019-04-14T08:24:46.256Z,32.20
2019-04-14T08:27:15.244Z,35.67
2019-04-14T08:29:44.264Z,32.57
2019-04-14T08:32:13.241Z,35.27
2019-04-14T08:34:42.066Z,34.67
2019-04-14T08:37:10.901Z,35.93
2019-04-14T08:39:40.074Z,31.70
2019-04-14T08:42:28.533Z,34.40
2019-04-14T08:44:59.688Z,33.87
2019-04-14T08:47:50.422Z,34.70
2019-04-14T08:50:24.668Z,33.47
2019-04-14T08:52:57.937Z,31.77
2019-04-14T08:55:45.896Z,32.10
2019-04-14T08:58:32.784Z,32.60
2019-04-14T09:01:20.752Z,33.20
2019-04-14T09:04:13.587Z,31.97
2019-04-14T09:07:04.681Z,33.30
2019-04-14T09:09:37.268Z,32.63
2019-04-14T09:12:15.656Z,30.63
2019-04-14T09:14:40.460Z,32.17
2019-04-14T09:17:09.877Z,32.70
2019-04-14T09:19:38.693Z,32.60
2019-04-14T09:22:07.600Z,33.83
2019-04-14T09:24:36.592Z,33.13
2019-04-14T09:27:05.569Z,31.37
2019-04-14T09:29:34.682Z,29.00
2019-04-14T09:32:05.284Z,27.33
2019-04-14T09:34:34.165Z,26.80
2019-04-14T09:37:03.122Z,25.30
2019-04-14T09:39:32.107Z,25.33
2019-04-14T09:42:02.224Z,26.47
2019-04-14T09:44:31.272Z,26.00
2019-04-14T09:47:00.185Z,24.80
2019-04-14T09:49:29.002Z,25.30
2019-04-14T09:51:58.008Z,26.90
2019-04-14T09:54:26.876Z,25.80
2019-04-14T09:56:55.908Z,27.97
2019-04-14T09:59:25.040Z,25.40
2019-04-14T10:01:54.432Z,24.77
2019-04-14T10:04:23.452Z,24.67
2019-04-14T10:06:52.449Z,22.80
2019-04-14T10:09:21.445Z,24.10
2019-04-14T10:11:53.684Z,23.67
2019-04-14T10:14:21.340Z,26.57
2019-04-14T10:16:50.258Z,24.10
2019-04-14T10:19:19.084Z,23.30
2019-04-14T10:21:47.992Z,22.60
2019-04-14T10:24:16.909Z,24.13
2019-04-14T10:26:45.809Z,22.10
2019-04-14T10:29:14.897Z,21.07
2019-04-14T10:31:43.825Z,22.20
2019-04-14T10:34:12.796Z,21.10
2019-04-14T10:36:41.782Z,20.40
2019-04-14T10:39:10.964Z,23.87
2019-04-14T10:41:39.931Z,21.07
2019-04-14T10:44:08.821Z,20.80
2019-04-14T10:46:37.630Z,22.13
2019-04-14T10:49:07.298Z,22.00
2019-04-14T10:51:36.225Z,20.80
2019-04-14T10:54:05.181Z,20.40
2019-04-14T10:56:34.348Z,20.63
2019-04-14T10:59:03.341Z,20.83
2019-04-14T11:01:32.219Z,19.90
2019-04-14T11:04:01.226Z,20.00
2019-04-14T11:06:38.432Z,18.73
2019-04-14T11:09:10.202Z,18.90
2019-04-14T11:11:39.010Z,18.07
2019-04-14T11:14:08.024Z,18.87
2019-04-14T11:16:36.910Z,19.20
2019-04-14T11:19:05.900Z,18.63
2019-04-14T11:21:42.326Z,18.20
2019-04-14T11:24:05.960Z,17.50
2019-04-14T11:26:35.132Z,17.63
2019-04-14T11:29:04.327Z,16.90
2019-04-14T11:31:48.292Z,18.20
2019-04-14T11:34:17.556Z,16.90
2019-04-14T11:37:09.136Z,19.50
2019-04-14T11:39:38.131Z,17.17
2019-04-14T11:42:07.045Z,16.80
2019-04-14T11:44:35.963Z,17.87
2019-04-14T11:47:05.572Z,15.97
2019-04-14T11:49:34.492Z,17.80
2019-04-14T11:52:03.781Z,16.20
2019-04-14T11:54:32.652Z,16.43
2019-04-14T11:57:01.436Z,16.47
2019-04-14T11:59:38.893Z,16.63
2019-04-14T12:02:16.152Z,16.47
2019-04-14T12:04:53.757Z,17.57
2019-04-14T12:07:38.672Z,15.40
2019-04-14T12:10:15.514Z,15.93
2019-04-14T12:12:44.845Z,15.77
2019-04-14T12:15:16.610Z,14.07
2019-04-14T12:17:44.681Z,15.87
2019-04-14T12:20:13.867Z,15.07
2019-04-14T12:22:42.870Z,15.00
2019-04-14T12:25:12.128Z,14.70
2019-04-14T12:27:42.006Z,16.03
2019-04-14T12:30:12.159Z,16.30
2019-04-14T12:32:41.954Z,16.87
2019-04-14T12:35:12.136Z,15.53
2019-04-14T12:37:41.132Z,15.50
2019-04-14T12:40:10.557Z,14.10
2019-04-14T12:42:57.111Z,14.23
2019-04-14T12:45:48.872Z,14.77
2019-04-14T12:48:23.954Z,14.90
2019-04-14T12:50:59.736Z,14.87
2019-04-14T12:53:28.636Z,13.47
2019-04-14T12:55:57.532Z,14.27
2019-04-14T12:58:36.239Z,15.10
2019-04-14T13:01:09.254Z,16.23
2019-04-14T13:03:41.917Z,14.73
2019-04-14T13:06:10.562Z,14.93
2019-04-14T13:08:39.613Z,15.20
2019-04-14T13:11:08.615Z,16.33
2019-04-14T13:13:37.567Z,17.07
2019-04-14T13:16:06.470Z,15.17
2019-04-14T13:18:35.304Z,15.70
2019-04-14T13:21:05.004Z,15.50
2019-04-14T13:23:33.826Z,13.60
2019-04-14T13:26:02.856Z,14.43
2019-04-14T13:28:31.824Z,14.93
2019-04-14T13:31:00.776Z,14.23
2019-04-14T13:33:29.677Z,14.93
2019-04-14T13:35:58.924Z,15.03
2019-04-14T13:38:28.491Z,15.27
2019-04-14T13:40:58.636Z,15.07
2019-04-14T13:43:27.425Z,14.77
2019-04-14T13:45:56.620Z,14.30
2019-04-14T13:48:28.515Z,15.20
2019-04-14T13:50:57.440Z,14.90
2019-04-14T13:53:26.373Z,14.80
2019-04-14T13:55:55.288Z,16.50
2019-04-14T13:58:24.257Z,14.30
2019-04-14T14:00:53.124Z,15.43
2019-04-14T14:03:22.082Z,14.70
2019-04-14T14:05:51.108Z,15.53
2019-04-14T14:08:20.108Z,15.10
2019-04-14T14:10:48.916Z,14.17
2019-04-14T14:13:34.883Z,16.20
2019-04-14T14:16:25.897Z,14.90
2019-04-14T14:19:09.116Z,13.70
2019-04-14T14:21:46.752Z,14.73
2019-04-14T14:24:27.950Z,15.80
2019-04-14T14:26:57.236Z,16.10
2019-04-14T14:29:26.072Z,14.80
2019-04-14T14:31:55.896Z,14.83
2019-04-14T14:34:24.865Z,15.10
2019-04-14T14:36:53.792Z,13.77
2019-04-14T14:39:22.877Z,13.43
2019-04-14T14:41:51.660Z,12.87
2019-04-14T14:44:22.510Z,13.33
2019-04-14T14:47:05.178Z,13.60
2019-04-14T14:49:47.596Z,13.70
2019-04-14T14:52:18.391Z,15.00
2019-04-14T14:54:47.280Z,13.90
2019-04-14T14:57:16.636Z,15.03
2019-04-14T14:59:45.777Z,14.53
2019-04-14T15:02:14.888Z,13.87
2019-04-14T15:04:44.080Z,14.40
2019-04-14T15:07:13.160Z,14.50
2019-04-14T15:09:41.964Z,13.50
2019-04-14T15:12:10.980Z,13.37
2019-04-14T15:14:39.769Z,14.80
2019-04-14T15:17:08.769Z,13.93
2019-04-14T15:19:37.664Z,14.60
2019-04-14T15:22:06.969Z,13.77
2019-04-14T15:24:35.961Z,14.87
2019-04-14T15:27:04.936Z,13.03
2019-04-14T15:29:33.716Z,14.23
2019-04-14T15:32:02.716Z,14.63
2019-04-14T15:34:31.644Z,13.87
2019-04-14T15:37:00.574Z,12.87
2019-04-14T15:39:29.564Z,14.33
2019-04-14T15:41:58.465Z,15.03
2019-04-14T15:44:27.508Z,13.07
2019-04-14T15:46:56.421Z,13.83
2019-04-14T15:49:25.585Z,13.33
2019-04-14T15:51:54.484Z,12.70
2019-04-14T15:54:25.378Z,14.10
2019-04-14T15:57:19.080Z,13.43
2019-04-14T16:00:05.726Z,13.10
2019-04-14T16:02:50.168Z,11.70
2019-04-14T16:05:32.312Z,11.20
2019-04-14T16:08:11.295Z,10.73
2019-04-14T16:10:52.906Z,11.80
2019-04-14T16:13:25.560Z,11.87
2019-04-14T16:16:28.564Z,11.13
2019-04-14T16:19:01.596Z,10.97
2019-04-14T16:21:30.497Z,10.33
2019-04-14T16:23:59.502Z,12.07
2019-04-14T16:26:46.436Z,10.37
2019-04-14T16:29:28.593Z,10.73
2019-04-14T16:32:10.449Z,10.10
2019-04-14T16:34:45.300Z,9.20
2019-04-14T16:37:14.509Z,8.87
2019-04-14T16:39:43.557Z,9.53
2019-04-14T16:42:12.452Z,9.63
2019-04-14T16:44:41.329Z,8.80
2019-04-14T16:47:10.125Z,8.93
2019-04-14T16:49:39.004Z,8.83
2019-04-14T16:52:42.412Z,9.17
2019-04-14T16:55:23.888Z,9.63
2019-04-14T16:58:09.510Z,9.13
2019-04-14T17:00:41.922Z,9.57
2019-04-14T17:03:10.911Z,8.63
2019-04-14T17:05:39.787Z,9.53
2019-04-14T17:08:09.728Z,9.23
2019-04-14T17:10:38.613Z,9.43
2019-04-14T17:13:07.676Z,9.27
2019-04-14T17:15:57.380Z,9.13
2019-04-14T17:18:35.892Z,9.03
2019-04-14T17:21:23.849Z,9.23
2019-04-14T17:24:15.957Z,10.10
2019-04-14T17:26:59.048Z,8.00
2019-04-14T17:29:45.863Z,9.10
2019-04-14T17:32:23.004Z,9.87
2019-04-14T17:35:09.577Z,9.60
2019-04-14T17:37:45.093Z,9.30
2019-04-14T17:40:27.024Z,9.40
2019-04-14T17:43:06.309Z,8.90
2019-04-14T17:46:00.282Z,9.53
2019-04-14T17:48:47.300Z,9.57
2019-04-14T17:51:24.763Z,9.20
2019-04-14T17:54:06.267Z,10.30
2019-04-14T17:56:43.918Z,10.57
2019-04-14T17:59:22.081Z,9.40
2019-04-14T18:02:09.109Z,10.53
2019-04-14T18:05:00.056Z,9.03
2019-04-14T18:07:41.372Z,10.90
2019-04-14T18:10:17.248Z,10.30
2019-04-14T18:13:00.068Z,10.80
2019-04-14T18:15:35.496Z,10.70
2019-04-14T18:18:26.397Z,11.83
2019-04-14T18:20:57.996Z,18.33
2019-04-14T18:23:27.084Z,11.30
2019-04-14T18:25:56.097Z,10.70
2019-04-14T18:28:40.253Z,10.93
2019-04-14T18:31:18.164Z,9.77
2019-04-14T18:33:57.243Z,9.37
2019-04-14T18:36:45.217Z,9.77
2019-04-14T18:39:31.774Z,9.93
2019-04-14T18:42:07.416Z,10.10
2019-04-14T18:44:43.065Z,10.30
2019-04-14T18:47:27.496Z,8.73
2019-04-14T18:50:01.537Z,9.23
2019-04-14T18:52:48.262Z,11.00
2019-04-14T18:55:42.408Z,10.00
2019-04-14T18:58:21.369Z,10.00
2019-04-14T19:00:53.040Z,11.00
2019-04-14T19:03:21.879Z,10.37
2019-04-14T19:05:51.243Z,9.83
2019-04-14T19:08:20.260Z,9.10
2019-04-14T19:11:02.931Z,9.80
2019-04-14T19:13:32.569Z,10.03
2019-04-14T19:16:06.408Z,10.30
2019-04-14T19:18:56.328Z,9.87
2019-04-14T19:21:27.429Z,11.07
2019-04-14T19:23:56.245Z,9.80
2019-04-14T19:26:25.456Z,9.93
2019-04-14T19:28:54.573Z,10.87
2019-04-14T19:31:23.957Z,10.60
2019-04-14T19:33:52.947Z,10.07
2019-04-14T19:36:21.840Z,10.30
2019-04-14T19:38:50.748Z,9.80
2019-04-14T19:41:19.535Z,10.00
2019-04-14T19:43:48.608Z,10.07
2019-04-14T19:46:17.604Z,9.57
2019-04-14T19:48:46.660Z,9.50
2019-04-14T19:51:15.680Z,8.73
2019-04-14T19:53:44.728Z,9.17
2019-04-14T19:56:13.532Z,9.20
2019-04-14T19:58:42.576Z,9.23
2019-04-14T20:01:11.681Z,8.03
2019-04-14T20:03:40.567Z,8.80
2019-04-14T20:06:09.709Z,8.97
2019-04-14T20:08:38.695Z,8.93
2019-04-14T20:11:07.765Z,9.03
2019-04-14T20:13:40.613Z,9.10
2019-04-14T20:16:24.675Z,8.50
2019-04-14T20:19:24.887Z,8.60
2019-04-14T20:22:18.852Z,8.50
2019-04-14T20:25:05.456Z,8.40
2019-04-14T20:27:39.161Z,8.40
2019-04-14T20:30:12.571Z,8.23
2019-04-14T20:32:42.442Z,8.00
2019-04-14T20:35:11.544Z,8.60
2019-04-14T20:37:40.572Z,7.97
2019-04-14T20:40:10.360Z,8.87
2019-04-14T20:42:39.257Z,8.33
2019-04-14T20:45:09.893Z,8.30
2019-04-14T20:47:38.809Z,7.60
2019-04-14T20:50:08.214Z,7.23
2019-04-14T20:52:37.217Z,8.60
2019-04-14T20:55:07.389Z,8.00
2019-04-14T20:57:36.401Z,8.03
2019-04-14T21:00:07.078Z,7.80
2019-04-14T21:03:04.332Z,8.40
2019-04-14T21:05:51.722Z,7.50
2019-04-14T21:08:40.878Z,7.70
2019-04-14T21:11:19.711Z,7.60
2019-04-14T21:14:07.800Z,7.87
2019-04-14T21:16:59.428Z,7.70
2019-04-14T21:19:45.700Z,8.00
2019-04-14T21:22:32.460Z,7.73
2019-04-14T21:25:26.572Z,8.13
2019-04-14T21:28:13.444Z,7.93
2019-04-14T21:31:01.292Z,8.37
2019-04-14T21:34:01.604Z,7.60
2019-04-14T21:36:37.939Z,7.00
2019-04-14T21:39:29.557Z,8.40
2019-04-14T21:41:58.513Z,7.27
2019-04-14T21:44:27.385Z,7.77
2019-04-14T21:46:56.660Z,7.67
2019-04-14T21:49:25.482Z,6.87
2019-04-14T21:52:01.955Z,6.50
2019-04-14T21:54:31.228Z,7.70
2019-04-14T21:57:17.756Z,7.13
2019-04-14T22:00:12.017Z,7.40
2019-04-14T22:03:00.013Z,7.30
2019-04-14T22:05:38.160Z,8.07
2019-04-14T22:08:20.332Z,7.30
2019-04-14T22:10:55.049Z,7.40
2019-04-14T22:13:24.189Z,8.60
2019-04-14T22:15:53.096Z,8.00
2019-04-14T22:18:22.384Z,7.33
2019-04-14T22:20:51.445Z,7.30
2019-04-14T22:23:20.460Z,7.97
2019-04-14T22:26:08.692Z,8.00
2019-04-14T22:28:37.602Z,7.77
2019-04-14T22:31:06.552Z,7.27
2019-04-14T22:33:35.790Z,8.27
2019-04-14T22:36:04.969Z,8.10
2019-04-14T22:38:34.033Z,7.37
2019-04-14T22:41:02.979Z,7.90
2019-04-14T22:43:31.888Z,9.13
2019-04-14T22:46:00.840Z,8.60
2019-04-14T22:48:29.854Z,8.40
2019-04-14T22:50:58.852Z,8.30
2019-04-14T22:53:27.825Z,8.50
2019-04-14T22:55:56.700Z,7.97
2019-04-14T22:58:25.600Z,8.30
2019-04-14T23:01:01.978Z,8.63
2019-04-14T23:03:47.693Z,8.00
2019-04-14T23:06:41.728Z,8.27
2019-04-14T23:09:28.272Z,8.65
2019-04-14T23:12:34.796Z,8.87
2019-04-14T23:15:22.069Z,7.63
2019-04-14T23:18:09.661Z,7.80
2019-04-14T23:21:03.861Z,8.27
2019-04-14T23:24:01.008Z,9.38
2019-04-14T23:26:29.986Z,8.40
2019-04-14T23:28:58.892Z,8.43
2019-04-14T23:31:27.784Z,7.90
2019-04-14T23:33:56.802Z,8.70
2019-04-14T23:36:25.589Z,8.93
2019-04-14T23:38:54.468Z,9.70
2019-04-14T23:41:23.399Z,9.53
2019-04-14T23:43:52.328Z,9.93
2019-04-14T23:46:21.120Z,9.50
2019-04-14T23:48:50.104Z,10.57
2019-04-14T23:51:19.028Z,10.27
2019-04-14T23:53:47.952Z,9.73
2019-04-14T23:56:17.004Z,10.00
2019-04-14T23:58:45.844Z,9.83
